sensor_id;sensor_type;location;lat;lon;timestamp;pressure;altitude;pressure_sealevel;temperature;humidity
84683;BME280;74905;44.124;18.116;2024-01-30T00:02:16;99261.72;;;-3.04;77.60
84683;BME280;74905;44.124;18.116;2024-01-30T00:04:41;99257.22;;;-3.07;77.27
84683;BME280;74905;44.124;18.116;2024-01-30T00:07:07;99262.13;;;-3.11;77.52
84683;BME280;74905;44.124;18.116;2024-01-30T00:09:33;99261.03;;;-3.19;76.94
84683;BME280;74905;44.124;18.116;2024-01-30T00:11:58;99260.78;;;-3.21;77.37
84683;BME280;74905;44.124;18.116;2024-01-30T00:14:24;99256.94;;;-3.29;77.82
84683;BME280;74905;44.124;18.116;2024-01-30T00:16:51;99261.19;;;-3.28;77.78
84683;BME280;74905;44.124;18.116;2024-01-30T00:19:16;99265.41;;;-3.27;77.73
84683;BME280;74905;44.124;18.116;2024-01-30T00:21:42;99265.94;;;-3.23;77.25
84683;BME280;74905;44.124;18.116;2024-01-30T00:24:07;99266.47;;;-3.19;77.70
84683;BME280;74905;44.124;18.116;2024-01-30T00:26:33;99268.97;;;-3.21;76.93
84683;BME280;74905;44.124;18.116;2024-01-30T00:28:59;99276.09;;;-3.24;76.40
84683;BME280;74905;44.124;18.116;2024-01-30T00:31:25;99279.69;;;-3.32;76.72
84683;BME280;74905;44.124;18.116;2024-01-30T00:33:51;99274.44;;;-3.36;76.86
84683;BME280;74905;44.124;18.116;2024-01-30T00:36:16;99269.75;;;-3.35;77.69
84683;BME280;74905;44.124;18.116;2024-01-30T00:38:42;99273.41;;;-3.39;77.14
84683;BME280;74905;44.124;18.116;2024-01-30T00:41:08;99277.13;;;-3.42;76.38
84683;BME280;74905;44.124;18.116;2024-01-30T00:43:35;99287.16;;;-3.48;77.51
84683;BME280;74905;44.124;18.116;2024-01-30T00:46:00;99279.97;;;-3.51;77.04
84683;BME280;74905;44.124;18.116;2024-01-30T00:48:26;99274.25;;;-3.53;77.80
84683;BME280;74905;44.124;18.116;2024-01-30T00:50:52;99280.91;;;-3.54;78.28
84683;BME280;74905;44.124;18.116;2024-01-30T00:53:17;99276.41;;;-3.57;78.54
84683;BME280;74905;44.124;18.116;2024-01-30T00:55:43;99273.00;;;-3.52;78.65
84683;BME280;74905;44.124;18.116;2024-01-30T00:58:09;99281.84;;;-3.57;78.05
84683;BME280;74905;44.124;18.116;2024-01-30T01:00:34;99280.09;;;-3.60;78.53
84683;BME280;74905;44.124;18.116;2024-01-30T01:03:01;99272.28;;;-3.67;78.98
84683;BME280;74905;44.124;18.116;2024-01-30T01:05:27;99277.00;;;-3.67;79.02
84683;BME280;74905;44.124;18.116;2024-01-30T01:07:52;99283.19;;;-3.67;79.12
84683;BME280;74905;44.124;18.116;2024-01-30T01:10:18;99280.00;;;-3.65;78.42
84683;BME280;74905;44.124;18.116;2024-01-30T01:12:44;99275.88;;;-3.61;78.48
84683;BME280;74905;44.124;18.116;2024-01-30T01:15:10;99266.09;;;-3.67;77.78
84683;BME280;74905;44.124;18.116;2024-01-30T01:17:36;99279.66;;;-3.73;78.45
84683;BME280;74905;44.124;18.116;2024-01-30T01:20:03;99274.59;;;-3.80;80.21
84683;BME280;74905;44.124;18.116;2024-01-30T01:22:31;99276.09;;;-3.79;80.30
84683;BME280;74905;44.124;18.116;2024-01-30T01:24:56;99261.28;;;-3.78;80.01
84683;BME280;74905;44.124;18.116;2024-01-30T01:27:22;99262.50;;;-3.79;80.38
84683;BME280;74905;44.124;18.116;2024-01-30T01:29:47;99263.44;;;-3.82;79.92
84683;BME280;74905;44.124;18.116;2024-01-30T01:32:13;99264.31;;;-3.91;79.21
84683;BME280;74905;44.124;18.116;2024-01-30T01:34:39;99267.38;;;-3.83;79.55
84683;BME280;74905;44.124;18.116;2024-01-30T01:37:04;99257.88;;;-3.73;79.09
84683;BME280;74905;44.124;18.116;2024-01-30T01:39:30;99255.97;;;-3.67;78.24
84683;BME280;74905;44.124;18.116;2024-01-30T01:41:55;99250.81;;;-3.65;77.31
84683;BME280;74905;44.124;18.116;2024-01-30T01:44:21;99250.00;;;-3.71;77.01
84683;BME280;74905;44.124;18.116;2024-01-30T01:46:47;99252.00;;;-3.86;77.42
84683;BME280;74905;44.124;18.116;2024-01-30T01:49:13;99251.00;;;-3.89;77.25
84683;BME280;74905;44.124;18.116;2024-01-30T01:51:41;99252.41;;;-3.93;77.20
84683;BME280;74905;44.124;18.116;2024-01-30T01:54:08;99252.03;;;-4.01;77.56
84683;BME280;74905;44.124;18.116;2024-01-30T01:56:34;99255.31;;;-3.97;78.07
84683;BME280;74905;44.124;18.116;2024-01-30T01:59:04;99255.69;;;-4.04;77.79
84683;BME280;74905;44.124;18.116;2024-01-30T02:01:32;99252.34;;;-4.14;77.96
84683;BME280;74905;44.124;18.116;2024-01-30T02:03:59;99258.34;;;-4.09;77.87
84683;BME280;74905;44.124;18.116;2024-01-30T02:06:25;99254.75;;;-4.01;78.04
84683;BME280;74905;44.124;18.116;2024-01-30T02:08:51;99255.78;;;-3.98;77.04
84683;BME280;74905;44.124;18.116;2024-01-30T02:11:17;99250.47;;;-4.07;77.17
84683;BME280;74905;44.124;18.116;2024-01-30T02:13:43;99254.59;;;-4.12;78.10
84683;BME280;74905;44.124;18.116;2024-01-30T02:16:09;99260.13;;;-4.06;78.07
84683;BME280;74905;44.124;18.116;2024-01-30T02:18:34;99269.50;;;-4.07;78.22
84683;BME280;74905;44.124;18.116;2024-01-30T02:21:04;99266.78;;;-4.07;77.95
84683;BME280;74905;44.124;18.116;2024-01-30T02:23:30;99267.59;;;-4.01;77.36
84683;BME280;74905;44.124;18.116;2024-01-30T02:25:56;99269.38;;;-3.98;77.30
84683;BME280;74905;44.124;18.116;2024-01-30T02:28:21;99266.00;;;-3.93;77.35
84683;BME280;74905;44.124;18.116;2024-01-30T02:30:47;99273.22;;;-3.90;76.87
84683;BME280;74905;44.124;18.116;2024-01-30T02:33:13;99272.00;;;-3.89;77.83
84683;BME280;74905;44.124;18.116;2024-01-30T02:35:39;99263.16;;;-3.84;77.29
84683;BME280;74905;44.124;18.116;2024-01-30T02:38:04;99267.38;;;-3.83;77.06
84683;BME280;74905;44.124;18.116;2024-01-30T02:40:31;99271.19;;;-3.75;77.04
84683;BME280;74905;44.124;18.116;2024-01-30T02:42:58;99266.38;;;-3.65;76.87
84683;BME280;74905;44.124;18.116;2024-01-30T02:45:24;99272.19;;;-3.58;77.28
84683;BME280;74905;44.124;18.116;2024-01-30T02:47:50;99273.41;;;-3.59;76.84
84683;BME280;74905;44.124;18.116;2024-01-30T02:50:15;99279.06;;;-3.62;76.78
84683;BME280;74905;44.124;18.116;2024-01-30T02:52:42;99276.16;;;-3.59;77.97
84683;BME280;74905;44.124;18.116;2024-01-30T02:55:09;99270.00;;;-3.54;78.47
84683;BME280;74905;44.124;18.116;2024-01-30T02:57:35;99269.31;;;-3.49;78.45
84683;BME280;74905;44.124;18.116;2024-01-30T03:00:01;99274.03;;;-3.49;78.30
84683;BME280;74905;44.124;18.116;2024-01-30T03:02:26;99276.56;;;-3.46;79.24
84683;BME280;74905;44.124;18.116;2024-01-30T03:04:52;99266.06;;;-3.53;77.62
84683;BME280;74905;44.124;18.116;2024-01-30T03:07:18;99272.75;;;-3.54;77.65
84683;BME280;74905;44.124;18.116;2024-01-30T03:09:43;99272.75;;;-3.54;78.22
84683;BME280;74905;44.124;18.116;2024-01-30T03:12:09;99272.38;;;-3.61;79.43
84683;BME280;74905;44.124;18.116;2024-01-30T03:14:35;99282.06;;;-3.60;80.01
84683;BME280;74905;44.124;18.116;2024-01-30T03:17:00;99271.19;;;-3.75;81.12
84683;BME280;74905;44.124;18.116;2024-01-30T03:19:26;99265.34;;;-3.68;81.20
84683;BME280;74905;44.124;18.116;2024-01-30T03:21:52;99265.72;;;-3.60;80.48
84683;BME280;74905;44.124;18.116;2024-01-30T03:24:18;99264.75;;;-3.57;80.17
84683;BME280;74905;44.124;18.116;2024-01-30T03:26:43;99263.00;;;-3.60;81.45
84683;BME280;74905;44.124;18.116;2024-01-30T03:29:09;99269.66;;;-3.61;82.07
84683;BME280;74905;44.124;18.116;2024-01-30T03:31:35;99270.78;;;-3.68;83.79
84683;BME280;74905;44.124;18.116;2024-01-30T03:34:01;99275.03;;;-3.67;84.07
84683;BME280;74905;44.124;18.116;2024-01-30T03:36:27;99268.75;;;-3.73;84.79
84683;BME280;74905;44.124;18.116;2024-01-30T03:38:53;99270.06;;;-3.68;85.31
84683;BME280;74905;44.124;18.116;2024-01-30T03:41:18;99280.91;;;-3.54;86.16
84683;BME280;74905;44.124;18.116;2024-01-30T03:43:44;99280.63;;;-3.56;85.27
84683;BME280;74905;44.124;18.116;2024-01-30T03:46:12;99269.84;;;-3.65;84.96
84683;BME280;74905;44.124;18.116;2024-01-30T03:48:38;99278.91;;;-3.73;85.29
84683;BME280;74905;44.124;18.116;2024-01-30T03:51:04;99276.75;;;-3.69;85.94
84683;BME280;74905;44.124;18.116;2024-01-30T03:56:01;99274.91;;;-3.58;85.71
84683;BME280;74905;44.124;18.116;2024-01-30T03:58:28;99282.94;;;-3.69;85.18
84683;BME280;74905;44.124;18.116;2024-01-30T04:00:54;99287.22;;;-3.62;85.99
84683;BME280;74905;44.124;18.116;2024-01-30T04:03:19;99280.22;;;-3.49;86.10
84683;BME280;74905;44.124;18.116;2024-01-30T04:05:45;99273.16;;;-3.41;85.99
84683;BME280;74905;44.124;18.116;2024-01-30T04:08:10;99289.22;;;-3.43;85.30
84683;BME280;74905;44.124;18.116;2024-01-30T04:10:36;99282.00;;;-3.46;85.20
84683;BME280;74905;44.124;18.116;2024-01-30T04:13:02;99285.19;;;-3.47;85.03
84683;BME280;74905;44.124;18.116;2024-01-30T04:15:27;99283.22;;;-3.47;84.90
84683;BME280;74905;44.124;18.116;2024-01-30T04:17:57;99286.50;;;-3.43;84.78
84683;BME280;74905;44.124;18.116;2024-01-30T04:20:24;99294.25;;;-3.35;84.10
84683;BME280;74905;44.124;18.116;2024-01-30T04:22:50;99292.88;;;-3.46;84.10
84683;BME280;74905;44.124;18.116;2024-01-30T04:25:16;99290.69;;;-3.62;83.41
84683;BME280;74905;44.124;18.116;2024-01-30T04:27:42;99290.13;;;-3.66;83.90
84683;BME280;74905;44.124;18.116;2024-01-30T04:30:08;99294.88;;;-3.81;83.87
84683;BME280;74905;44.124;18.116;2024-01-30T04:32:34;99296.19;;;-3.91;84.64
84683;BME280;74905;44.124;18.116;2024-01-30T04:35:00;99292.25;;;-3.90;84.44
84683;BME280;74905;44.124;18.116;2024-01-30T04:37:26;99294.34;;;-4.00;84.41
84683;BME280;74905;44.124;18.116;2024-01-30T04:39:51;99302.13;;;-4.07;84.05
84683;BME280;74905;44.124;18.116;2024-01-30T04:42:17;99296.13;;;-4.12;84.18
84683;BME280;74905;44.124;18.116;2024-01-30T04:44:43;99303.72;;;-4.16;84.39
84683;BME280;74905;44.124;18.116;2024-01-30T04:47:08;99312.16;;;-4.14;83.96
84683;BME280;74905;44.124;18.116;2024-01-30T04:49:36;99312.72;;;-4.24;83.55
84683;BME280;74905;44.124;18.116;2024-01-30T04:52:02;99309.72;;;-4.26;83.68
84683;BME280;74905;44.124;18.116;2024-01-30T04:54:28;99316.47;;;-4.22;83.02
84683;BME280;74905;44.124;18.116;2024-01-30T04:56:53;99315.25;;;-4.21;82.76
84683;BME280;74905;44.124;18.116;2024-01-30T04:59:19;99310.06;;;-4.04;82.72
84683;BME280;74905;44.124;18.116;2024-01-30T05:01:44;99317.88;;;-4.12;82.17
84683;BME280;74905;44.124;18.116;2024-01-30T05:04:10;99327.25;;;-4.13;82.74
84683;BME280;74905;44.124;18.116;2024-01-30T05:06:36;99318.63;;;-4.11;83.63
84683;BME280;74905;44.124;18.116;2024-01-30T05:09:02;99322.09;;;-4.10;83.44
84683;BME280;74905;44.124;18.116;2024-01-30T05:11:30;99330.72;;;-4.12;82.99
84683;BME280;74905;44.124;18.116;2024-01-30T05:13:55;99329.03;;;-4.09;83.23
84683;BME280;74905;44.124;18.116;2024-01-30T05:16:21;99332.41;;;-4.00;82.77
84683;BME280;74905;44.124;18.116;2024-01-30T05:18:47;99332.00;;;-3.93;82.69
84683;BME280;74905;44.124;18.116;2024-01-30T05:21:12;99323.97;;;-3.87;82.54
84683;BME280;74905;44.124;18.116;2024-01-30T05:23:38;99325.53;;;-3.81;82.64
84683;BME280;74905;44.124;18.116;2024-01-30T05:26:03;99325.25;;;-3.83;81.98
84683;BME280;74905;44.124;18.116;2024-01-30T05:28:29;99327.09;;;-3.74;82.39
84683;BME280;74905;44.124;18.116;2024-01-30T05:30:56;99331.72;;;-3.80;81.93
84683;BME280;74905;44.124;18.116;2024-01-30T05:33:21;99333.31;;;-3.73;81.74
84683;BME280;74905;44.124;18.116;2024-01-30T05:35:47;99332.16;;;-3.67;81.72
84683;BME280;74905;44.124;18.116;2024-01-30T05:38:15;99330.88;;;-3.71;81.67
84683;BME280;74905;44.124;18.116;2024-01-30T05:40:41;99339.66;;;-3.62;82.01
84683;BME280;74905;44.124;18.116;2024-01-30T05:43:07;99337.41;;;-3.63;82.12
84683;BME280;74905;44.124;18.116;2024-01-30T05:45:33;99341.63;;;-3.62;82.64
84683;BME280;74905;44.124;18.116;2024-01-30T05:48:01;99339.66;;;-3.62;83.43
84683;BME280;74905;44.124;18.116;2024-01-30T05:50:26;99342.28;;;-3.53;84.23
84683;BME280;74905;44.124;18.116;2024-01-30T05:52:52;99340.94;;;-3.43;84.71
84683;BME280;74905;44.124;18.116;2024-01-30T05:55:18;99346.91;;;-3.39;83.69
84683;BME280;74905;44.124;18.116;2024-01-30T05:57:44;99355.25;;;-3.27;84.68
84683;BME280;74905;44.124;18.116;2024-01-30T06:00:10;99340.69;;;-3.24;84.66
84683;BME280;74905;44.124;18.116;2024-01-30T06:02:36;99341.72;;;-3.22;83.61
84683;BME280;74905;44.124;18.116;2024-01-30T06:05:02;99343.47;;;-3.19;84.19
84683;BME280;74905;44.124;18.116;2024-01-30T06:07:28;99343.31;;;-3.30;83.63
84683;BME280;74905;44.124;18.116;2024-01-30T06:09:53;99341.84;;;-3.31;83.69
84683;BME280;74905;44.124;18.116;2024-01-30T06:12:19;99344.47;;;-3.37;83.94
84683;BME280;74905;44.124;18.116;2024-01-30T06:14:45;99350.66;;;-3.36;84.05
84683;BME280;74905;44.124;18.116;2024-01-30T06:17:11;99351.81;;;-3.43;84.88
84683;BME280;74905;44.124;18.116;2024-01-30T06:19:38;99351.97;;;-3.31;85.50
84683;BME280;74905;44.124;18.116;2024-01-30T06:22:07;99350.25;;;-3.29;84.98
84683;BME280;74905;44.124;18.116;2024-01-30T06:24:33;99352.06;;;-3.26;84.61
84683;BME280;74905;44.124;18.116;2024-01-30T06:26:59;99346.78;;;-3.29;84.33
84683;BME280;74905;44.124;18.116;2024-01-30T06:29:26;99348.41;;;-3.38;84.12
84683;BME280;74905;44.124;18.116;2024-01-30T06:31:52;99354.72;;;-3.46;84.81
84683;BME280;74905;44.124;18.116;2024-01-30T06:34:18;99367.94;;;-3.39;84.83
84683;BME280;74905;44.124;18.116;2024-01-30T06:36:43;99358.78;;;-3.42;84.64
84683;BME280;74905;44.124;18.116;2024-01-30T06:39:09;99364.88;;;-3.47;84.49
84683;BME280;74905;44.124;18.116;2024-01-30T06:41:35;99359.00;;;-3.60;84.20
84683;BME280;74905;44.124;18.116;2024-01-30T06:44:03;99368.56;;;-3.64;84.49
84683;BME280;74905;44.124;18.116;2024-01-30T06:46:31;99365.19;;;-3.59;84.53
84683;BME280;74905;44.124;18.116;2024-01-30T06:48:58;99364.03;;;-3.53;84.37
84683;BME280;74905;44.124;18.116;2024-01-30T06:51:23;99360.50;;;-3.59;83.41
84683;BME280;74905;44.124;18.116;2024-01-30T06:53:49;99368.66;;;-3.59;83.82
84683;BME280;74905;44.124;18.116;2024-01-30T06:56:15;99369.88;;;-3.60;83.83
84683;BME280;74905;44.124;18.116;2024-01-30T06:58:41;99370.41;;;-3.56;83.87
84683;BME280;74905;44.124;18.116;2024-01-30T07:01:06;99365.09;;;-3.65;83.99
84683;BME280;74905;44.124;18.116;2024-01-30T07:03:32;99359.53;;;-3.56;84.02
84683;BME280;74905;44.124;18.116;2024-01-30T07:05:58;99364.44;;;-3.60;83.86
84683;BME280;74905;44.124;18.116;2024-01-30T07:08:24;99370.41;;;-3.56;84.14
84683;BME280;74905;44.124;18.116;2024-01-30T07:10:49;99374.81;;;-3.58;83.94
84683;BME280;74905;44.124;18.116;2024-01-30T07:13:15;99373.44;;;-3.54;84.11
84683;BME280;74905;44.124;18.116;2024-01-30T07:15:42;99377.47;;;-3.49;84.49
84683;BME280;74905;44.124;18.116;2024-01-30T07:18:08;99372.50;;;-3.51;83.28
84683;BME280;74905;44.124;18.116;2024-01-30T07:23:07;99373.25;;;-3.50;84.19
84683;BME280;74905;44.124;18.116;2024-01-30T07:25:33;99383.25;;;-3.42;83.70
84683;BME280;74905;44.124;18.116;2024-01-30T07:28:02;99374.97;;;-3.32;83.66
84683;BME280;74905;44.124;18.116;2024-01-30T07:30:31;99380.06;;;-3.40;83.33
84683;BME280;74905;44.124;18.116;2024-01-30T07:32:56;99384.66;;;-3.31;84.01
84683;BME280;74905;44.124;18.116;2024-01-30T07:35:22;99378.13;;;-3.19;84.30
84683;BME280;74905;44.124;18.116;2024-01-30T07:37:48;99382.06;;;-3.20;83.63
84683;BME280;74905;44.124;18.116;2024-01-30T07:40:13;99381.47;;;-3.10;83.87
84683;BME280;74905;44.124;18.116;2024-01-30T07:42:39;99381.88;;;-3.17;83.17
84683;BME280;74905;44.124;18.116;2024-01-30T07:45:05;99387.03;;;-3.19;83.52
84683;BME280;74905;44.124;18.116;2024-01-30T07:47:31;99386.84;;;-3.15;83.51
84683;BME280;74905;44.124;18.116;2024-01-30T07:49:57;99385.75;;;-3.23;82.67
84683;BME280;74905;44.124;18.116;2024-01-30T07:52:22;99386.75;;;-3.21;83.51
84683;BME280;74905;44.124;18.116;2024-01-30T07:54:48;99378.06;;;-3.25;82.75
84683;BME280;74905;44.124;18.116;2024-01-30T07:57:14;99380.38;;;-3.18;83.63
84683;BME280;74905;44.124;18.116;2024-01-30T07:59:42;99392.66;;;-3.08;82.62
84683;BME280;74905;44.124;18.116;2024-01-30T08:02:09;99389.63;;;-3.10;82.58
84683;BME280;74905;44.124;18.116;2024-01-30T08:04:35;99391.47;;;-3.21;82.44
84683;BME280;74905;44.124;18.116;2024-01-30T08:07:01;99385.50;;;-3.05;83.07
84683;BME280;74905;44.124;18.116;2024-01-30T08:09:27;99383.81;;;-3.03;82.46
84683;BME280;74905;44.124;18.116;2024-01-30T08:11:52;99382.66;;;-2.96;82.08
84683;BME280;74905;44.124;18.116;2024-01-30T08:14:18;99388.13;;;-3.11;81.54
84683;BME280;74905;44.124;18.116;2024-01-30T08:16:44;99377.63;;;-3.03;82.78
84683;BME280;74905;44.124;18.116;2024-01-30T08:19:09;99385.38;;;-2.96;81.97
84683;BME280;74905;44.124;18.116;2024-01-30T08:21:35;99390.13;;;-2.91;82.26
84683;BME280;74905;44.124;18.116;2024-01-30T08:24:05;99383.00;;;-2.68;82.22
84683;BME280;74905;44.124;18.116;2024-01-30T08:26:32;99374.41;;;-2.61;81.23
84683;BME280;74905;44.124;18.116;2024-01-30T08:28:58;99379.03;;;-2.47;81.15
84683;BME280;74905;44.124;18.116;2024-01-30T08:31:23;99375.94;;;-2.34;80.42
84683;BME280;74905;44.124;18.116;2024-01-30T08:33:49;99376.91;;;-2.37;79.67
84683;BME280;74905;44.124;18.116;2024-01-30T08:36:16;99380.31;;;-2.16;79.49
84683;BME280;74905;44.124;18.116;2024-01-30T08:38:42;99376.94;;;-2.32;78.45
84683;BME280;74905;44.124;18.116;2024-01-30T08:41:08;99380.00;;;-2.24;79.94
84683;BME280;74905;44.124;18.116;2024-01-30T08:43:33;99374.22;;;-2.06;78.88
84683;BME280;74905;44.124;18.116;2024-01-30T08:46:00;99367.81;;;-2.03;77.99
84683;BME280;74905;44.124;18.116;2024-01-30T08:48:26;99371.72;;;-2.09;77.44
84683;BME280;74905;44.124;18.116;2024-01-30T08:50:52;99374.22;;;-2.06;77.89
84683;BME280;74905;44.124;18.116;2024-01-30T08:53:17;99370.72;;;-2.12;77.40
84683;BME280;74905;44.124;18.116;2024-01-30T08:55:44;99373.16;;;-2.14;77.69
84683;BME280;74905;44.124;18.116;2024-01-30T08:58:10;99373.03;;;-2.25;77.97
84683;BME280;74905;44.124;18.116;2024-01-30T09:00:35;99371.28;;;-2.02;78.00
84683;BME280;74905;44.124;18.116;2024-01-30T09:03:01;99369.31;;;-2.02;77.79
84683;BME280;74905;44.124;18.116;2024-01-30T09:05:27;99374.59;;;-1.93;77.15
84683;BME280;74905;44.124;18.116;2024-01-30T09:07:52;99370.38;;;-1.94;76.38
84683;BME280;74905;44.124;18.116;2024-01-30T09:10:19;99371.13;;;-1.93;76.10
84683;BME280;74905;44.124;18.116;2024-01-30T09:12:44;99368.66;;;-1.91;77.45
84683;BME280;74905;44.124;18.116;2024-01-30T09:15:10;99373.84;;;-1.93;77.09
84683;BME280;74905;44.124;18.116;2024-01-30T09:17:36;99368.00;;;-1.80;76.55
84683;BME280;74905;44.124;18.116;2024-01-30T09:20:02;99362.13;;;-1.73;76.40
84683;BME280;74905;44.124;18.116;2024-01-30T09:22:27;99358.38;;;-1.39;76.23
84683;BME280;74905;44.124;18.116;2024-01-30T09:27:22;99359.09;;;-1.01;73.73
84683;BME280;74905;44.124;18.116;2024-01-30T09:29:48;99363.78;;;-1.07;73.27
84683;BME280;74905;44.124;18.116;2024-01-30T09:32:14;99366.25;;;-1.09;73.59
84683;BME280;74905;44.124;18.116;2024-01-30T09:34:39;99353.81;;;-1.10;74.04
84683;BME280;74905;44.124;18.116;2024-01-30T09:37:05;99354.28;;;-1.18;74.54
84683;BME280;74905;44.124;18.116;2024-01-30T09:39:31;99350.88;;;-1.01;73.94
84683;BME280;74905;44.124;18.116;2024-01-30T09:42:14;99351.03;;;-0.68;74.73
84683;BME280;74905;44.124;18.116;2024-01-30T09:44:44;99355.28;;;-0.56;71.93
84683;BME280;74905;44.124;18.116;2024-01-30T09:47:10;99346.81;;;-0.69;71.87
84683;BME280;74905;44.124;18.116;2024-01-30T09:49:36;99347.31;;;-0.65;73.13
84683;BME280;74905;44.124;18.116;2024-01-30T09:52:05;99348.66;;;-0.21;70.46
84683;BME280;74905;44.124;18.116;2024-01-30T09:54:32;99347.94;;;0.56;69.46
84683;BME280;74905;44.124;18.116;2024-01-30T09:56:58;99343.34;;;1.56;66.26
84683;BME280;74905;44.124;18.116;2024-01-30T09:59:27;99342.59;;;3.05;59.43
84683;BME280;74905;44.124;18.116;2024-01-30T10:01:54;99338.25;;;3.71;58.25
84683;BME280;74905;44.124;18.116;2024-01-30T10:04:21;99334.44;;;3.93;57.29
84683;BME280;74905;44.124;18.116;2024-01-30T10:06:47;99329.84;;;3.63;57.09
84683;BME280;74905;44.124;18.116;2024-01-30T10:09:13;99322.84;;;3.44;58.17
84683;BME280;74905;44.124;18.116;2024-01-30T10:11:39;99324.66;;;2.74;60.45
84683;BME280;74905;44.124;18.116;2024-01-30T10:14:04;99323.50;;;2.15;62.25
84683;BME280;74905;44.124;18.116;2024-01-30T10:16:30;99319.69;;;2.18;62.68
84683;BME280;74905;44.124;18.116;2024-01-30T10:18:56;99316.22;;;1.82;63.25
84683;BME280;74905;44.124;18.116;2024-01-30T10:21:23;99318.91;;;1.52;65.70
84683;BME280;74905;44.124;18.116;2024-01-30T10:23:49;99314.97;;;1.83;65.35
84683;BME280;74905;44.124;18.116;2024-01-30T10:26:16;99305.69;;;2.21;63.22
84683;BME280;74905;44.124;18.116;2024-01-30T10:28:45;99301.16;;;2.54;62.49
84683;BME280;74905;44.124;18.116;2024-01-30T10:31:11;99304.69;;;3.16;62.33
84683;BME280;74905;44.124;18.116;2024-01-30T10:33:44;99301.44;;;3.36;61.36
84683;BME280;74905;44.124;18.116;2024-01-30T10:36:13;99285.94;;;3.52;62.02
84683;BME280;74905;44.124;18.116;2024-01-30T10:38:42;99297.69;;;3.53;61.88
84683;BME280;74905;44.124;18.116;2024-01-30T10:41:08;99278.94;;;3.51;62.88
84683;BME280;74905;44.124;18.116;2024-01-30T10:43:41;99273.31;;;3.94;63.02
84683;BME280;74905;44.124;18.116;2024-01-30T10:46:18;99268.09;;;4.75;58.22
84683;BME280;74905;44.124;18.116;2024-01-30T10:48:50;99264.59;;;4.88;59.27
84683;BME280;74905;44.124;18.116;2024-01-30T10:51:21;99251.63;;;5.56;56.63
84683;BME280;74905;44.124;18.116;2024-01-30T10:53:49;99245.59;;;6.00;55.00
84683;BME280;74905;44.124;18.116;2024-01-30T10:56:21;99241.22;;;6.61;53.80
84683;BME280;74905;44.124;18.116;2024-01-30T10:58:49;99232.59;;;7.08;52.55
84683;BME280;74905;44.124;18.116;2024-01-30T11:01:16;99234.22;;;7.62;50.64
84683;BME280;74905;44.124;18.116;2024-01-30T11:03:42;99235.38;;;7.97;48.93
84683;BME280;74905;44.124;18.116;2024-01-30T11:06:11;99232.97;;;8.09;49.84
84683;BME280;74905;44.124;18.116;2024-01-30T11:08:39;99224.25;;;8.50;48.18
84683;BME280;74905;44.124;18.116;2024-01-30T11:11:09;99213.50;;;8.62;47.77
84683;BME280;74905;44.124;18.116;2024-01-30T11:13:35;99209.34;;;9.33;45.58
84683;BME280;74905;44.124;18.116;2024-01-30T11:16:04;99203.66;;;9.16;46.58
84683;BME280;74905;44.124;18.116;2024-01-30T11:18:31;99207.38;;;9.51;45.28
84683;BME280;74905;44.124;18.116;2024-01-30T11:21:00;99196.84;;;9.99;44.13
84683;BME280;74905;44.124;18.116;2024-01-30T11:23:32;99193.38;;;9.66;44.07
84683;BME280;74905;44.124;18.116;2024-01-30T11:25:58;99189.59;;;9.79;44.36
84683;BME280;74905;44.124;18.116;2024-01-30T11:28:24;99183.53;;;10.15;42.72
84683;BME280;74905;44.124;18.116;2024-01-30T11:31:06;99182.75;;;9.97;43.17
84683;BME280;74905;44.124;18.116;2024-01-30T11:33:35;99173.00;;;10.31;42.68
84683;BME280;74905;44.124;18.116;2024-01-30T11:36:01;99173.75;;;10.83;41.88
84683;BME280;74905;44.124;18.116;2024-01-30T11:38:28;99172.38;;;11.18;40.07
84683;BME280;74905;44.124;18.116;2024-01-30T11:40:56;99164.50;;;11.61;39.23
84683;BME280;74905;44.124;18.116;2024-01-30T11:43:23;99166.25;;;11.93;38.94
84683;BME280;74905;44.124;18.116;2024-01-30T11:45:49;99156.31;;;12.28;38.26
84683;BME280;74905;44.124;18.116;2024-01-30T11:48:14;99151.88;;;13.02;36.96
84683;BME280;74905;44.124;18.116;2024-01-30T11:50:40;99145.44;;;13.50;35.53
84683;BME280;74905;44.124;18.116;2024-01-30T11:53:07;99149.63;;;13.39;36.14
84683;BME280;74905;44.124;18.116;2024-01-30T11:55:34;99151.91;;;12.93;36.04
84683;BME280;74905;44.124;18.116;2024-01-30T11:58:02;99154.41;;;12.89;36.18
84683;BME280;74905;44.124;18.116;2024-01-30T12:00:29;99146.22;;;13.41;35.06
84683;BME280;74905;44.124;18.116;2024-01-30T12:02:56;99143.47;;;13.12;35.59
84683;BME280;74905;44.124;18.116;2024-01-30T12:05:23;99139.94;;;13.21;34.87
84683;BME280;74905;44.124;18.116;2024-01-30T12:07:49;99126.97;;;13.35;34.89
84683;BME280;74905;44.124;18.116;2024-01-30T12:10:15;99134.16;;;13.48;34.24
84683;BME280;74905;44.124;18.116;2024-01-30T12:12:42;99131.16;;;13.87;33.26
84683;BME280;74905;44.124;18.116;2024-01-30T12:15:08;99122.03;;;13.55;34.07
84683;BME280;74905;44.124;18.116;2024-01-30T12:17:34;99116.69;;;13.90;31.92
84683;BME280;74905;44.124;18.116;2024-01-30T12:20:04;99116.56;;;14.09;31.92
84683;BME280;74905;44.124;18.116;2024-01-30T12:22:30;99115.03;;;14.18;31.93
84683;BME280;74905;44.124;18.116;2024-01-30T12:24:56;99111.00;;;14.64;30.86
84683;BME280;74905;44.124;18.116;2024-01-30T12:27:23;99112.25;;;14.72;30.41
84683;BME280;74905;44.124;18.116;2024-01-30T12:29:55;99096.72;;;14.81;29.58
84683;BME280;74905;44.124;18.116;2024-01-30T12:32:22;99097.06;;;14.42;30.00
84683;BME280;74905;44.124;18.116;2024-01-30T12:34:48;99092.72;;;14.63;30.22
84683;BME280;74905;44.124;18.116;2024-01-30T12:37:14;99084.41;;;14.86;30.30
84683;BME280;74905;44.124;18.116;2024-01-30T12:39:43;99084.06;;;15.03;29.63
84683;BME280;74905;44.124;18.116;2024-01-30T12:42:08;99078.69;;;14.96;29.00
84683;BME280;74905;44.124;18.116;2024-01-30T12:44:34;99078.28;;;14.78;29.28
84683;BME280;74905;44.124;18.116;2024-01-30T12:49:28;99069.38;;;14.70;30.00
84683;BME280;74905;44.124;18.116;2024-01-30T12:51:54;99069.94;;;15.48;29.03
84683;BME280;74905;44.124;18.116;2024-01-30T12:54:20;99069.34;;;15.14;29.95
84683;BME280;74905;44.124;18.116;2024-01-30T12:56:46;99067.22;;;15.96;27.35